sensor_id;sensor_type;location;lat;lon;timestamp;pressure;altitude;pressure_sealevel;temperature;humidity
14293;BME280;62290;59.420;17.842;2023-03-19T00:02:06;100960.56;;;26.41;21.69
14293;BME280;62290;59.420;17.842;2023-03-19T00:04:43;100947.25;;;26.30;21.70
14293;BME280;62290;59.420;17.842;2023-03-19T00:07:12;100967.84;;;26.41;21.81
14293;BME280;62290;59.420;17.842;2023-03-19T00:09:43;100967.56;;;26.44;21.58
14293;BME280;62290;59.420;17.842;2023-03-19T00:12:14;100968.38;;;26.44;21.70
14293;BME280;62290;59.420;17.842;2023-03-19T00:14:42;100972.81;;;26.45;21.99
14293;BME280;62290;59.420;17.842;2023-03-19T00:17:10;100974.38;;;26.48;21.71
14293;BME280;62290;59.420;17.842;2023-03-19T00:19:38;100968.78;;;26.49;21.57
14293;BME280;62290;59.420;17.842;2023-03-19T00:22:06;100984.88;;;26.51;21.45
14293;BME280;62290;59.420;17.842;2023-03-19T00:24:35;100975.06;;;26.50;22.03
14293;BME280;62290;59.420;17.842;2023-03-19T00:27:04;100978.34;;;26.53;21.84
14293;BME280;62290;59.420;17.842;2023-03-19T00:29:33;100981.91;;;26.54;22.00
14293;BME280;62290;59.420;17.842;2023-03-19T00:32:02;100983.75;;;26.53;21.76
14293;BME280;62290;59.420;17.842;2023-03-19T00:34:30;100981.03;;;26.53;22.05
14293;BME280;62290;59.420;17.842;2023-03-19T00:36:58;100981.91;;;26.54;21.64
14293;BME280;62290;59.420;17.842;2023-03-19T00:39:26;100984.59;;;26.54;21.55
14293;BME280;62290;59.420;17.842;2023-03-19T00:41:54;100982.59;;;26.56;21.77
14293;BME280;62290;59.420;17.842;2023-03-19T00:44:24;100992.53;;;26.55;21.74
14293;BME280;62290;59.420;17.842;2023-03-19T00:46:52;100986.28;;;26.55;21.41
14293;BME280;62290;59.420;17.842;2023-03-19T00:49:20;100991.16;;;26.51;21.77
14293;BME280;62290;59.420;17.842;2023-03-19T00:51:48;100990.00;;;26.54;21.51
14293;BME280;62290;59.420;17.842;2023-03-19T00:54:16;101000.81;;;26.54;21.32
14293;BME280;62290;59.420;17.842;2023-03-19T00:56:44;100991.00;;;26.53;21.74
14293;BME280;62290;59.420;17.842;2023-03-19T00:59:12;100990.13;;;26.52;21.51
14293;BME280;62290;59.420;17.842;2023-03-19T01:01:41;100996.56;;;26.51;21.48
14293;BME280;62290;59.420;17.842;2023-03-19T01:04:09;100998.41;;;26.51;21.73
14293;BME280;62290;59.420;17.842;2023-03-19T01:06:38;100987.59;;;26.51;21.48
14293;BME280;62290;59.420;17.842;2023-03-19T01:09:06;100988.56;;;26.50;21.72
14293;BME280;62290;59.420;17.842;2023-03-19T01:11:35;100987.72;;;26.49;21.86
14293;BME280;62290;59.420;17.842;2023-03-19T01:14:03;100993.13;;;26.49;21.50
14293;BME280;62290;59.420;17.842;2023-03-19T01:16:31;100993.13;;;26.49;21.76
14293;BME280;62290;59.420;17.842;2023-03-19T01:19:01;100958.06;;;26.30;21.68
14293;BME280;62290;59.420;17.842;2023-03-19T01:21:29;100996.84;;;26.48;21.88
14293;BME280;62290;59.420;17.842;2023-03-19T01:23:57;100994.13;;;26.48;21.90
14293;BME280;62290;59.420;17.842;2023-03-19T01:26:27;101003.09;;;26.49;21.66
14293;BME280;62290;59.420;17.842;2023-03-19T01:29:04;100998.69;;;26.48;21.55
14293;BME280;62290;59.420;17.842;2023-03-19T01:31:33;101006.78;;;26.48;21.91
14293;BME280;62290;59.420;17.842;2023-03-19T01:34:23;101004.38;;;26.45;21.46
14293;BME280;62290;59.420;17.842;2023-03-19T01:36:54;101009.94;;;26.43;21.73
14293;BME280;62290;59.420;17.842;2023-03-19T01:39:30;101009.22;;;26.41;21.54
14293;BME280;62290;59.420;17.842;2023-03-19T01:42:00;101012.06;;;26.40;21.40
14293;BME280;62290;59.420;17.842;2023-03-19T01:44:49;101010.94;;;26.32;21.69
14293;BME280;62290;59.420;17.842;2023-03-19T01:47:29;101015.75;;;26.38;21.50
14293;BME280;62290;59.420;17.842;2023-03-19T01:50:28;101018.78;;;26.35;21.77
14293;BME280;62290;59.420;17.842;2023-03-19T01:53:15;101020.75;;;26.33;21.46
14293;BME280;62290;59.420;17.842;2023-03-19T01:55:51;101025.31;;;26.33;21.83
14293;BME280;62290;59.420;17.842;2023-03-19T01:58:34;101026.47;;;26.30;21.73
14293;BME280;62290;59.420;17.842;2023-03-19T02:01:17;101031.00;;;26.30;21.96
14293;BME280;62290;59.420;17.842;2023-03-19T02:03:50;101030.00;;;26.31;21.99
14293;BME280;62290;59.420;17.842;2023-03-19T02:06:28;101026.00;;;26.25;22.01
14293;BME280;62290;59.420;17.842;2023-03-19T02:08:58;101035.28;;;26.32;21.83
14293;BME280;62290;59.420;17.842;2023-03-19T02:11:26;101033.44;;;26.33;21.48
14293;BME280;62290;59.420;17.842;2023-03-19T02:13:55;101031.72;;;26.32;21.91
14293;BME280;62290;59.420;17.842;2023-03-19T02:16:23;101041.38;;;26.34;21.96
14293;BME280;62290;59.420;17.842;2023-03-19T02:18:52;101031.44;;;26.35;21.95
14293;BME280;62290;59.420;17.842;2023-03-19T02:21:22;101031.28;;;26.36;21.98
14293;BME280;62290;59.420;17.842;2023-03-19T02:23:56;101032.84;;;26.39;21.84
14293;BME280;62290;59.420;17.842;2023-03-19T02:26:56;101038.41;;;26.38;21.43
14293;BME280;62290;59.420;17.842;2023-03-19T02:29:25;101036.53;;;26.38;21.92
14293;BME280;62290;59.420;17.842;2023-03-19T02:31:57;101043.78;;;26.38;21.53
14293;BME280;62290;59.420;17.842;2023-03-19T02:34:33;101050.75;;;26.40;21.87
14293;BME280;62290;59.420;17.842;2023-03-19T02:37:06;101015.81;;;26.19;21.70
14293;BME280;62290;59.420;17.842;2023-03-19T02:39:41;101046.50;;;26.38;21.41
14293;BME280;62290;59.420;17.842;2023-03-19T02:42:14;101048.91;;;26.41;21.87
14293;BME280;62290;59.420;17.842;2023-03-19T02:44:44;101056.28;;;26.38;21.64
14293;BME280;62290;59.420;17.842;2023-03-19T02:47:12;101058.00;;;26.40;21.73
14293;BME280;62290;59.420;17.842;2023-03-19T02:49:40;101057.31;;;26.38;21.95
14293;BME280;62290;59.420;17.842;2023-03-19T02:52:08;101070.81;;;26.38;21.41
14293;BME280;62290;59.420;17.842;2023-03-19T02:54:37;101069.97;;;26.37;21.90
14293;BME280;62290;59.420;17.842;2023-03-19T02:57:05;101065.84;;;26.33;21.68
14293;BME280;62290;59.420;17.842;2023-03-19T02:59:34;101077.50;;;26.33;21.83
14293;BME280;62290;59.420;17.842;2023-03-19T03:02:02;101080.34;;;26.32;21.86
14293;BME280;62290;59.420;17.842;2023-03-19T03:04:31;101071.53;;;26.30;21.97
14293;BME280;62290;59.420;17.842;2023-03-19T03:07:00;101079.66;;;26.30;21.50
14293;BME280;62290;59.420;17.842;2023-03-19T03:09:29;101076.09;;;26.29;21.84
14293;BME280;62290;59.420;17.842;2023-03-19T03:11:57;101013.19;;;25.89;21.63
14293;BME280;62290;59.420;17.842;2023-03-19T03:14:26;101080.63;;;26.29;21.85
14293;BME280;62290;59.420;17.842;2023-03-19T03:16:55;101063.00;;;26.25;21.80
14293;BME280;62290;59.420;17.842;2023-03-19T03:19:24;101075.22;;;26.29;22.02
14293;BME280;62290;59.420;17.842;2023-03-19T03:21:52;101076.09;;;26.29;22.02
14293;BME280;62290;59.420;17.842;2023-03-19T03:24:20;101074.25;;;26.30;21.55
14293;BME280;62290;59.420;17.842;2023-03-19T03:26:48;101058.00;;;26.20;21.54
14293;BME280;62290;59.420;17.842;2023-03-19T03:29:16;101065.44;;;26.28;22.04
14293;BME280;62290;59.420;17.842;2023-03-19T03:31:44;101075.38;;;26.27;21.47
14293;BME280;62290;59.420;17.842;2023-03-19T03:34:14;101092.00;;;26.32;21.98
14293;BME280;62290;59.420;17.842;2023-03-19T03:36:42;101079.38;;;26.33;21.58
14293;BME280;62290;59.420;17.842;2023-03-19T03:39:12;101087.47;;;26.33;21.87
14293;BME280;62290;59.420;17.842;2023-03-19T03:41:41;101081.22;;;26.32;21.57
14293;BME280;62290;59.420;17.842;2023-03-19T03:44:09;101079.38;;;26.33;21.91
14293;BME280;62290;59.420;17.842;2023-03-19T03:46:39;101081.06;;;26.34;21.67
14293;BME280;62290;59.420;17.842;2023-03-19T03:49:09;101081.91;;;26.34;21.31
14293;BME280;62290;59.420;17.842;2023-03-19T03:51:40;101079.06;;;26.36;21.89
14293;BME280;62290;59.420;17.842;2023-03-19T03:54:08;101084.47;;;26.36;21.86
14293;BME280;62290;59.420;17.842;2023-03-19T03:56:36;101078.34;;;26.34;21.54
14293;BME280;62290;59.420;17.842;2023-03-19T03:59:04;101085.59;;;26.33;21.67
14293;BME280;62290;59.420;17.842;2023-03-19T04:01:33;101083.91;;;26.32;21.73
14293;BME280;62290;59.420;17.842;2023-03-19T04:04:01;101088.47;;;26.32;21.89
14293;BME280;62290;59.420;17.842;2023-03-19T04:06:29;101093.84;;;26.32;21.44
14293;BME280;62290;59.420;17.842;2023-03-19T04:09:25;101100.41;;;26.29;21.84
14293;BME280;62290;59.420;17.842;2023-03-19T04:11:53;101098.69;;;26.28;21.93
14293;BME280;62290;59.420;17.842;2023-03-19T04:14:22;101098.69;;;26.28;21.59
14293;BME280;62290;59.420;17.842;2023-03-19T04:16:50;101111.50;;;26.26;21.59
14293;BME280;62290;59.420;17.842;2023-03-19T04:19:18;101119.59;;;26.26;21.88
14293;BME280;62290;59.420;17.842;2023-03-19T04:21:46;101120.56;;;26.25;21.34
14293;BME280;62290;59.420;17.842;2023-03-19T04:24:14;101107.06;;;26.25;21.61
14293;BME280;62290;59.420;17.842;2023-03-19T04:26:44;101111.50;;;26.26;21.47
14293;BME280;62290;59.420;17.842;2023-03-19T04:29:15;101112.47;;;26.25;22.00
14293;BME280;62290;59.420;17.842;2023-03-19T04:31:44;101106.25;;;26.25;21.92
14293;BME280;62290;59.420;17.842;2023-03-19T04:34:12;101111.75;;;26.23;21.41
14293;BME280;62290;59.420;17.842;2023-03-19T04:36:40;101116.03;;;26.26;21.85
14293;BME280;62290;59.420;17.842;2023-03-19T04:39:08;101116.91;;;26.26;21.73
14293;BME280;62290;59.420;17.842;2023-03-19T04:41:37;101116.03;;;26.26;21.80
14293;BME280;62290;59.420;17.842;2023-03-19T04:44:22;101116.91;;;26.26;21.48
14293;BME280;62290;59.420;17.842;2023-03-19T04:46:51;101119.59;;;26.26;21.92
14293;BME280;62290;59.420;17.842;2023-03-19T04:49:20;101124.00;;;26.27;21.48
14293;BME280;62290;59.420;17.842;2023-03-19T04:51:49;101125.00;;;26.26;21.68
14293;BME280;62290;59.420;17.842;2023-03-19T04:54:18;101116.91;;;26.26;21.48
14293;BME280;62290;59.420;17.842;2023-03-19T04:56:46;101119.59;;;26.26;21.40
14293;BME280;62290;59.420;17.842;2023-03-19T04:59:15;101127.69;;;26.26;21.84
14293;BME280;62290;59.420;17.842;2023-03-19T05:01:45;101119.59;;;26.26;21.75
14293;BME280;62290;59.420;17.842;2023-03-19T05:04:17;101116.03;;;26.26;21.65
14293;BME280;62290;59.420;17.842;2023-03-19T05:06:46;101115.31;;;26.24;21.72
14293;BME280;62290;59.420;17.842;2023-03-19T05:09:14;101114.34;;;26.25;21.75
14293;BME280;62290;59.420;17.842;2023-03-19T05:11:42;101118.03;;;26.24;21.79
14293;BME280;62290;59.420;17.842;2023-03-19T05:14:16;101127.00;;;26.24;21.38
14293;BME280;62290;59.420;17.842;2023-03-19T05:17:06;101127.28;;;26.21;21.45
14293;BME280;62290;59.420;17.842;2023-03-19T05:19:46;101124.56;;;26.21;21.60
14293;BME280;62290;59.420;17.842;2023-03-19T05:22:15;101120.16;;;26.20;21.76
14293;BME280;62290;59.420;17.842;2023-03-19T05:24:43;101129.97;;;26.21;21.83
14293;BME280;62290;59.420;17.842;2023-03-19T05:27:11;101106.63;;;26.01;21.87
14293;BME280;62290;59.420;17.842;2023-03-19T05:29:48;101140.63;;;26.23;21.53
14293;BME280;62290;59.420;17.842;2023-03-19T05:32:26;101145.19;;;26.22;21.81
14293;BME280;62290;59.420;17.842;2023-03-19T05:34:57;101150.72;;;26.21;21.37
14293;BME280;62290;59.420;17.842;2023-03-19T05:37:25;101150.72;;;26.21;21.40
14293;BME280;62290;59.420;17.842;2023-03-19T05:39:56;101146.19;;;26.21;21.94
14293;BME280;62290;59.420;17.842;2023-03-19T05:42:24;101156.13;;;26.21;21.92
14293;BME280;62290;59.420;17.842;2023-03-19T05:44:55;101171.47;;;26.20;21.96
14293;BME280;62290;59.420;17.842;2023-03-19T05:47:35;101172.22;;;26.22;21.99
14293;BME280;62290;59.420;17.842;2023-03-19T05:50:05;101140.50;;;26.15;21.43
14293;BME280;62290;59.420;17.842;2023-03-19T05:52:34;101158.72;;;26.22;21.92
14293;BME280;62290;59.420;17.842;2023-03-19T05:55:04;101165.25;;;26.20;21.45
14293;BME280;62290;59.420;17.842;2023-03-19T05:57:44;101176.50;;;26.25;21.73
14293;BME280;62290;59.420;17.842;2023-03-19T06:00:22;101190.81;;;26.25;21.58
14293;BME280;62290;59.420;17.842;2023-03-19T06:02:51;101192.53;;;26.26;21.93
14293;BME280;62290;59.420;17.842;2023-03-19T06:05:52;101181.03;;;26.24;21.40
14293;BME280;62290;59.420;17.842;2023-03-19T06:08:34;101179.91;;;26.27;21.43
14293;BME280;62290;59.420;17.842;2023-03-19T06:11:11;101181.63;;;26.28;21.46
14293;BME280;62290;59.420;17.842;2023-03-19T06:13:40;101184.16;;;26.29;21.38
14293;BME280;62290;59.420;17.842;2023-03-19T06:16:13;101185.03;;;26.30;21.87
14293;BME280;62290;59.420;17.842;2023-03-19T06:19:01;101152.44;;;26.12;21.73
14293;BME280;62290;59.420;17.842;2023-03-19T06:21:29;101200.09;;;26.32;21.59
14293;BME280;62290;59.420;17.842;2023-03-19T06:24:01;101202.81;;;26.32;21.81
14293;BME280;62290;59.420;17.842;2023-03-19T06:26:33;101209.06;;;26.33;21.92
14293;BME280;62290;59.420;17.842;2023-03-19T06:29:07;101208.63;;;26.28;21.50
14293;BME280;62290;59.420;17.842;2023-03-19T06:31:37;101211.91;;;26.31;21.96
14293;BME280;62290;59.420;17.842;2023-03-19T06:34:31;101206.63;;;26.30;21.55
14293;BME280;62290;59.420;17.842;2023-03-19T06:36:59;101204.78;;;26.30;21.88
14293;BME280;62290;59.420;17.842;2023-03-19T06:39:27;101214.75;;;26.30;21.84
14293;BME280;62290;59.420;17.842;2023-03-19T06:41:56;101214.03;;;26.28;21.44
14293;BME280;62290;59.420;17.842;2023-03-19T06:44:25;101207.78;;;26.27;21.52
14293;BME280;62290;59.420;17.842;2023-03-19T06:46:53;101209.63;;;26.27;21.94
14293;BME280;62290;59.420;17.842;2023-03-19T06:49:22;101189.25;;;26.13;21.66
14293;BME280;62290;59.420;17.842;2023-03-19T06:51:51;101206.16;;;26.15;22.27
14293;BME280;62290;59.420;17.842;2023-03-19T06:54:19;101217.84;;;26.25;22.17
14293;BME280;62290;59.420;17.842;2023-03-19T06:56:47;101211.72;;;26.23;21.96
14293;BME280;62290;59.420;17.842;2023-03-19T06:59:16;101221.41;;;26.26;22.10
14293;BME280;62290;59.420;17.842;2023-03-19T07:01:44;101226.81;;;26.26;22.08
14293;BME280;62290;59.420;17.842;2023-03-19T07:04:12;101225.84;;;26.27;22.13
14293;BME280;62290;59.420;17.842;2023-03-19T07:06:40;101225.69;;;26.28;22.02
14293;BME280;62290;59.420;17.842;2023-03-19T07:09:10;101225.56;;;26.30;21.91
14293;BME280;62290;59.420;17.842;2023-03-19T07:11:38;101228.25;;;26.30;21.68
14293;BME280;62290;59.420;17.842;2023-03-19T07:14:06;101230.97;;;26.30;22.06
14293;BME280;62290;59.420;17.842;2023-03-19T07:16:34;101233.66;;;26.30;21.68
14293;BME280;62290;59.420;17.842;2023-03-19T07:19:02;101232.66;;;26.31;21.68
14293;BME280;62290;59.420;17.842;2023-03-19T07:21:30;101222.00;;;26.29;21.48
14293;BME280;62290;59.420;17.842;2023-03-19T07:23:58;101240.63;;;26.32;21.88
14293;BME280;62290;59.420;17.842;2023-03-19T07:26:27;101236.09;;;26.33;21.59
14293;BME280;62290;59.420;17.842;2023-03-19T07:28:56;101233.50;;;26.31;21.56
14293;BME280;62290;59.420;17.842;2023-03-19T07:31:24;101242.47;;;26.32;21.85
14293;BME280;62290;59.420;17.842;2023-03-19T07:33:52;101233.66;;;26.30;21.55
14293;BME280;62290;59.420;17.842;2023-03-19T07:36:20;101242.75;;;26.29;21.38
14293;BME280;62290;59.420;17.842;2023-03-19T07:38:49;101239.19;;;26.28;21.69
14293;BME280;62290;59.420;17.842;2023-03-19T07:41:17;101243.75;;;26.28;21.67
14293;BME280;62290;59.420;17.842;2023-03-19T07:43:46;101245.44;;;26.29;21.48
14293;BME280;62290;59.420;17.842;2023-03-19T07:46:14;101245.59;;;26.27;21.63
14293;BME280;62290;59.420;17.842;2023-03-19T07:48:43;101246.59;;;26.26;21.41
14293;BME280;62290;59.420;17.842;2023-03-19T07:51:12;101210.38;;;26.08;21.58
14293;BME280;62290;59.420;17.842;2023-03-19T07:53:40;101235.06;;;26.24;21.90
14293;BME280;62290;59.420;17.842;2023-03-19T07:56:08;101247.72;;;26.24;21.56
14293;BME280;62290;59.420;17.842;2023-03-19T07:58:37;101256.81;;;26.23;22.00
14293;BME280;62290;59.420;17.842;2023-03-19T08:01:06;101260.38;;;26.23;21.70
14293;BME280;62290;59.420;17.842;2023-03-19T08:03:34;101263.06;;;26.23;21.66
14293;BME280;62290;59.420;17.842;2023-03-19T08:06:02;101253.66;;;26.18;21.56
14293;BME280;62290;59.420;17.842;2023-03-19T08:08:31;101266.78;;;26.22;21.63
14293;BME280;62290;59.420;17.842;2023-03-19T08:11:00;101274.72;;;26.24;21.54
14293;BME280;62290;59.420;17.842;2023-03-19T08:13:28;101277.44;;;26.24;21.66
14293;BME280;62290;59.420;17.842;2023-03-19T08:15:57;101280.13;;;26.24;22.00
14293;BME280;62290;59.420;17.842;2023-03-19T08:18:26;101271.31;;;26.22;21.58
14293;BME280;62290;59.420;17.842;2023-03-19T08:20:54;101259.50;;;26.23;22.21
14293;BME280;62290;59.420;17.842;2023-03-19T08:23:22;101261.38;;;26.22;21.86
14293;BME280;62290;59.420;17.842;2023-03-19T08:25:50;101267.75;;;26.21;21.97
14293;BME280;62290;59.420;17.842;2023-03-19T08:28:19;101268.75;;;26.20;21.69
14293;BME280;62290;59.420;17.842;2023-03-19T08:30:47;101254.41;;;26.20;21.89
14293;BME280;62290;59.420;17.842;2023-03-19T08:33:16;101231.97;;;25.99;22.03
14293;BME280;62290;59.420;17.842;2023-03-19T08:35:45;101256.25;;;26.19;22.31
14293;BME280;62290;59.420;17.842;2023-03-19T08:38:13;101249.97;;;26.19;22.90
14293;BME280;62290;59.420;17.842;2023-03-19T08:40:41;101265.22;;;26.20;22.50
14293;BME280;62290;59.420;17.842;2023-03-19T08:43:09;101257.94;;;26.20;22.59
14293;BME280;62290;59.420;17.842;2023-03-19T08:45:37;101267.75;;;26.21;22.87
14293;BME280;62290;59.420;17.842;2023-03-19T08:48:05;101265.06;;;26.21;22.96
14293;BME280;62290;59.420;17.842;2023-03-19T08:50:33;101265.22;;;26.20;22.51
14293;BME280;62290;59.420;17.842;2023-03-19T08:53:03;101254.41;;;26.20;22.73
14293;BME280;62290;59.420;17.842;2023-03-19T08:55:31;101267.31;;;26.16;22.34
14293;BME280;62290;59.420;17.842;2023-03-19T08:57:59;101273.69;;;26.15;22.45
14293;BME280;62290;59.420;17.842;2023-03-19T09:00:27;101269.31;;;26.14;22.48
14293;BME280;62290;59.420;17.842;2023-03-19T09:02:56;101265.13;;;26.10;22.45
14293;BME280;62290;59.420;17.842;2023-03-19T09:05:26;101271.53;;;26.09;22.80
14293;BME280;62290;59.420;17.842;2023-03-19T09:07:55;101269.56;;;26.11;22.27
14293;BME280;62290;59.420;17.842;2023-03-19T09:10:25;101269.56;;;26.11;22.62
14293;BME280;62290;59.420;17.842;2023-03-19T09:12:52;101280.34;;;26.11;22.73
14293;BME280;62290;59.420;17.842;2023-03-19T09:15:21;101271.53;;;26.09;22.62
14293;BME280;62290;59.420;17.842;2023-03-19T09:17:49;101269.09;;;26.06;22.46
14293;BME280;62290;59.420;17.842;2023-03-19T09:20:17;101264.41;;;26.08;22.58
14293;BME280;62290;59.420;17.842;2023-03-19T09:22:45;101276.09;;;26.09;22.48
14293;BME280;62290;59.420;17.842;2023-03-19T09:25:13;101275.22;;;26.08;22.60
14293;BME280;62290;59.420;17.842;2023-03-19T09:27:42;101276.09;;;26.09;22.32
14293;BME280;62290;59.420;17.842;2023-03-19T09:30:11;101273.38;;;26.09;22.69
14293;BME280;62290;59.420;17.842;2023-03-19T09:32:40;101280.47;;;26.10;22.21
14293;BME280;62290;59.420;17.842;2023-03-19T09:35:08;101282.13;;;26.12;22.63
14293;BME280;62290;59.420;17.842;2023-03-19T09:37:37;101281.09;;;26.13;22.33
14293;BME280;62290;59.420;17.842;2023-03-19T09:40:06;101286.38;;;26.15;22.27
14293;BME280;62290;59.420;17.842;2023-03-19T09:42:47;101279.00;;;26.17;22.42
14293;BME280;62290;59.420;17.842;2023-03-19T09:45:17;101280.97;;;26.15;22.20
14293;BME280;62290;59.420;17.842;2023-03-19T09:47:51;101283.53;;;26.16;22.14
14293;BME280;62290;59.420;17.842;2023-03-19T09:50:24;101280.84;;;26.16;22.71
14293;BME280;62290;59.420;17.842;2023-03-19T09:52:59;101275.44;;;26.16;22.57
14293;BME280;62290;59.420;17.842;2023-03-19T09:55:34;101249.75;;;26.01;22.25
14293;BME280;62290;59.420;17.842;2023-03-19T09:58:15;101271.75;;;26.17;22.31
14293;BME280;62290;59.420;17.842;2023-03-19T10:00:46;101277.97;;;26.18;22.34
14293;BME280;62290;59.420;17.842;2023-03-19T10:03:31;101281.41;;;26.20;22.19
14293;BME280;62290;59.420;17.842;2023-03-19T10:06:13;101276.13;;;26.18;22.22
14293;BME280;62290;59.420;17.842;2023-03-19T10:08:56;101278.41;;;26.13;22.22
14293;BME280;62290;59.420;17.842;2023-03-19T10:11:43;101292.50;;;26.17;22.81
14293;BME280;62290;59.420;17.842;2023-03-19T10:14:32;101281.97;;;26.14;22.18
14293;BME280;62290;59.420;17.842;2023-03-19T10:17:03;101281.09;;;26.13;22.48
14293;BME280;62290;59.420;17.842;2023-03-19T10:19:41;101276.56;;;26.14;22.33
14293;BME280;62290;59.420;17.842;2023-03-19T10:22:14;101279.41;;;26.12;22.52
14293;BME280;62290;59.420;17.842;2023-03-19T10:24:44;101267.97;;;26.09;22.50
14293;BME280;62290;59.420;17.842;2023-03-19T10:27:14;101271.38;;;26.11;22.65
14293;BME280;62290;59.420;17.842;2023-03-19T10:29:43;101259.00;;;25.99;22.82
14293;BME280;62290;59.420;17.842;2023-03-19T10:32:16;101284.03;;;26.10;22.88
14293;BME280;62290;59.420;17.842;2023-03-19T10:34:46;101278.63;;;26.10;22.52
14293;BME280;62290;59.420;17.842;2023-03-19T10:37:17;101273.22;;;26.10;22.94
14293;BME280;62290;59.420;17.842;2023-03-19T10:39:47;101283.91;;;26.12;23.06
14293;BME280;62290;59.420;17.842;2023-03-19T10:42:30;101282.13;;;26.12;22.89
14293;BME280;62290;59.420;17.842;2023-03-19T10:45:11;101277.53;;;26.13;22.97
14293;BME280;62290;59.420;17.842;2023-03-19T10:47:45;101274.09;;;26.11;22.88
14293;BME280;62290;59.420;17.842;2023-03-19T10:50:15;101287.38;;;26.14;22.96
14293;BME280;62290;59.420;17.842;2023-03-19T10:52:45;101281.81;;;26.15;23.06
14293;BME280;62290;59.420;17.842;2023-03-19T10:55:22;101285.25;;;26.17;22.56
14293;BME280;62290;59.420;17.842;2023-03-19T10:57:56;101287.81;;;26.19;22.98
14293;BME280;62290;59.420;17.842;2023-03-19T11:00:31;101249.16;;;25.98;23.01
14293;BME280;62290;59.420;17.842;2023-03-19T11:03:01;101287.81;;;26.19;22.62
14293;BME280;62290;59.420;17.842;2023-03-19T11:05:32;101280.69;;;26.18;22.63
14293;BME280;62290;59.420;17.842;2023-03-19T11:08:02;101293.81;;;26.22;22.84
14293;BME280;62290;59.420;17.842;2023-03-19T11:10:32;101288.41;;;26.22;23.15
14293;BME280;62290;59.420;17.842;2023-03-19T11:13:04;101303.59;;;26.23;23.16
14293;BME280;62290;59.420;17.842;2023-03-19T11:15:36;101294.63;;;26.23;22.63
14293;BME280;62290;59.420;17.842;2023-03-19T11:18:07;101283.53;;;26.16;23.14
14293;BME280;62290;59.420;17.842;2023-03-19T11:20:36;101292.66;;;26.25;23.07
14293;BME280;62290;59.420;17.842;2023-03-19T11:23:07;101289.97;;;26.25;22.86
14293;BME280;62290;59.420;17.842;2023-03-19T11:25:41;101283.97;;;26.21;23.06
14293;BME280;62290;59.420;17.842;2023-03-19T11:28:14;101281.88;;;26.25;22.89
14293;BME280;62290;59.420;17.842;2023-03-19T11:30:55;101287.13;;;26.26;22.89
14293;BME280;62290;59.420;17.842;2023-03-19T11:33:46;101283.56;;;26.26;22.75
14293;BME280;62290;59.420;17.842;2023-03-19T11:36:22;101277.59;;;26.22;23.14
14293;BME280;62290;59.420;17.842;2023-03-19T11:41:57;101271.31;;;26.22;22.94
14293;BME280;62290;59.420;17.842;2023-03-19T11:44:33;101247.69;;;26.14;23.15
14293;BME280;62290;59.420;17.842;2023-03-19T11:47:10;101236.44;;;26.09;22.96
14293;BME280;62290;59.420;17.842;2023-03-19T11:50:02;101257.09;;;26.20;23.32
14293;BME280;62290;59.420;17.842;2023-03-19T11:52:39;101257.94;;;26.20;23.44
14293;BME280;62290;59.420;17.842;2023-03-19T11:55:16;101258.78;;;26.21;23.50
14293;BME280;62290;59.420;17.842;2023-03-19T11:58:12;101249.00;;;26.20;23.32
14293;BME280;62290;59.420;17.842;2023-03-19T12:00:46;101247.28;;;26.19;23.38
14293;BME280;62290;59.420;17.842;2023-03-19T12:03:39;101255.22;;;26.20;23.52
14293;BME280;62290;59.420;17.842;2023-03-19T12:06:18;101244.56;;;26.19;23.48
14293;BME280;62290;59.420;17.842;2023-03-19T12:08:57;101245.16;;;26.22;23.29
14293;BME280;62290;59.420;17.842;2023-03-19T12:11:35;101237.78;;;26.24;23.21
14293;BME280;62290;59.420;17.842;2023-03-19T12:14:16;101245.88;;;26.24;23.11
14293;BME280;62290;59.420;17.842;2023-03-19T12:16:58;101245.88;;;26.24;23.50
14293;BME280;62290;59.420;17.842;2023-03-19T12:19:40;101245.00;;;26.24;23.15
14293;BME280;62290;59.420;17.842;2023-03-19T12:22:21;101240.47;;;26.24;23.33
14293;BME280;62290;59.420;17.842;2023-03-19T12:25:10;101236.75;;;26.25;23.59
14293;BME280;62290;59.420;17.842;2023-03-19T12:27:47;101231.78;;;26.21;23.23
14293;BME280;62290;59.420;17.842;2023-03-19T12:30:27;101237.78;;;26.24;23.27
14293;BME280;62290;59.420;17.842;2023-03-19T12:33:16;101243.88;;;26.26;23.68
14293;BME280;62290;59.420;17.842;2023-03-19T12:35:54;101209.53;;;26.08;23.53
14293;BME280;62290;59.420;17.842;2023-03-19T12:38:26;101228.97;;;26.22;23.25
14293;BME280;62290;59.420;17.842;2023-03-19T12:40:59;101227.09;;;26.23;23.72
14293;BME280;62290;59.420;17.842;2023-03-19T12:43:36;101226.97;;;26.24;23.42
14293;BME280;62290;59.420;17.842;2023-03-19T12:46:09;101227.94;;;26.23;23.45
14293;BME280;62290;59.420;17.842;2023-03-19T12:48:41;101210.00;;;26.13;23.54
14293;BME280;62290;59.420;17.842;2023-03-19T12:51:16;101224.69;;;26.20;23.47
14293;BME280;62290;59.420;17.842;2023-03-19T12:53:48;101234.63;;;26.19;23.79
14293;BME280;62290;59.420;17.842;2023-03-19T12:56:20;101230.22;;;26.18;23.56
14293;BME280;62290;59.420;17.842;2023-03-19T12:58:57;101195.41;;;25.95;23.83
14293;BME280;62290;59.420;17.842;2023-03-19T13:01:30;101231.34;;;26.16;23.64
14293;BME280;62290;59.420;17.842;2023-03-19T13:04:05;101226.09;;;26.14;23.75
14293;BME280;62290;59.420;17.842;2023-03-19T13:06:41;101218.09;;;26.13;24.18
14293;BME280;62290;59.420;17.842;2023-03-19T13:09:15;101213.81;;;26.10;24.20